Airfield :
LOGIN :

Register | Disclaimer

   EN    FR    IT 

 










Legend :    VFR   Marginal VFR   IFR   Intensive IFR   Very Intensive IFR
Visi :
Ceiling :
>= 8 km
>= 3000ft
5 to 8 km
1000 to 3000 ft
1500m to 5 km
500 to 1000 ft
800 to 1500m
200 to 500 ft
< 800m
< 200 ft
Symbols :   Thunderstorms  Fog  Heavy snow  Heavy precipitations  Wind > 20 kt
SIGMETs :     Misc.  Thunderstorms  Icing  Turbulence  Mountain Waves  Volcanic Ashes






- Airport Elevation : 370 ft


EBBE - Beauvechain AB

CURRENT METAR :
  • 070618Z 27008KT 4000 SHRA FEW009 SCT015TCU BKN030 16/15 Q1022 GRN WHT TEMPO GRN

EXPIRED METARs :
  • 070555Z 27007KT 9999 FEW018 BKN035 16/15 Q1022 BLU BLU TEMPO WHT
  • 070525Z 28007KT 8000 FEW025 BKN035 15/15 Q1022 BLU BLU TEMPO WHT
  • 070521Z 28007KT 8000 FEW025 BKN035 15/15 Q1022 BLU BLU TEMPO WHT
  • 070504Z 29010KT 5000 -SHRA SCT015TCU BKN035 16/14 Q1022 WHT WHT TEMPO GRN
  • 070455Z 27008KT 9999 FEW018 BKN035 17/14 Q1021 BLU BLU TEMPO WHT
  • 070355Z AUTO 25007KT 9999 FEW034/// BKN044/// BKN050/// 17/14 Q1021 BLU
  • 070325Z AUTO 25008KT 9999 FEW034/// OVC049/// 17/14 Q1021 BLU

TAF TAF EBBE
Valid from the 06 at 19:00 until the 07 at 07:00 UTC


061541Z 0619/0707 26010KT 9999 BKN040
TEMPO 0703/0707 SCT014 BKN030
TEMPO 0705/0707 6000 -RA SCT012 BKN025



MET'MAP, your aeronautical weather chart ! - Copyright ORBIFLY December 2007 - Disclaimer

ORBIFLY MET'MAP TEAM :

Programming & Development : Alexandra Zaïnal
Original concept : Baudouin d'Aumeries
Technical & hardware support : Manuel Goepfert
Assistance : Marc-Olivier Méhu




SOURCES & CREDITS :

   NOAA